createdAt,value
2023-05-10T00:01:07.348Z,97.60
2023-05-10T00:03:36.276Z,97.30
2023-05-10T00:06:05.218Z,97.40
2023-05-10T00:08:33.303Z,97.10
2023-05-10T00:11:05.737Z,97.00
2023-05-10T00:13:33.883Z,97.30
2023-05-10T00:16:02.160Z,97.60
2023-05-10T00:18:31.292Z,97.60
2023-05-10T00:20:59.385Z,97.80
2023-05-10T00:23:30.356Z,98.10
2023-05-10T00:25:59.246Z,97.70
2023-05-10T00:28:29.681Z,98.50
2023-05-10T00:30:58.424Z,98.30
2023-05-10T00:33:27.326Z,98.00
2023-05-10T00:35:58.260Z,98.00
2023-05-10T00:38:29.083Z,97.90
2023-05-10T00:40:58.341Z,98.10
2023-05-10T00:43:33.272Z,98.00
2023-05-10T00:46:01.939Z,99.40
2023-05-10T00:48:31.524Z,98.60
2023-05-10T00:51:00.179Z,98.40
2023-05-10T00:53:29.147Z,98.90
2023-05-10T00:55:57.927Z,99.00
2023-05-10T00:58:29.320Z,99.40
2023-05-10T01:00:59.736Z,99.00
2023-05-10T01:03:29.309Z,98.80
2023-05-10T01:05:57.785Z,99.50
2023-05-10T01:08:27.266Z,99.60
2023-05-10T01:10:55.887Z,99.60
2023-05-10T01:13:34.308Z,99.00
2023-05-10T01:16:04.387Z,98.40
2023-05-10T01:18:37.333Z,98.30
2023-05-10T01:21:21.100Z,98.50
2023-05-10T01:24:26.292Z,98.50
2023-05-10T01:27:28.310Z,98.10
2023-05-10T01:30:16.027Z,97.50
2023-05-10T01:32:58.340Z,97.80
2023-05-10T01:35:37.369Z,97.50
2023-05-10T01:38:14.088Z,97.80
2023-05-10T01:40:49.302Z,97.30
2023-05-10T01:43:23.496Z,97.10
2023-05-10T01:46:12.416Z,96.70
2023-05-10T01:48:49.209Z,96.60
2023-05-10T01:51:23.850Z,96.80
2023-05-10T01:53:58.603Z,96.80
2023-05-10T01:56:30.260Z,96.90
2023-05-10T01:58:59.302Z,97.50
2023-05-10T02:01:31.301Z,97.80
2023-05-10T02:04:04.132Z,97.10
2023-05-10T02:06:34.300Z,97.20
2023-05-10T02:09:03.484Z,97.00
2023-05-10T02:11:33.139Z,97.10
2023-05-10T02:14:04.295Z,97.80
2023-05-10T02:16:34.762Z,97.60
2023-05-10T02:19:07.366Z,97.40
2023-05-10T02:21:37.181Z,97.10
2023-05-10T02:24:10.310Z,97.30
2023-05-10T02:26:40.219Z,98.00
2023-05-10T02:29:10.292Z,97.70
2023-05-10T02:31:39.840Z,98.30
2023-05-10T02:34:13.490Z,98.90
2023-05-10T02:36:43.159Z,99.30
2023-05-10T02:39:17.259Z,99.90
2023-05-10T02:41:48.053Z,99.90
2023-05-10T02:44:25.251Z,99.90
2023-05-10T02:46:53.504Z,99.90
2023-05-10T02:49:25.407Z,99.90
2023-05-10T02:51:58.931Z,99.90
2023-05-10T02:54:32.048Z,99.90
2023-05-10T02:57:01.530Z,99.90
2023-05-10T02:59:29.664Z,99.90
2023-05-10T03:02:01.258Z,99.90
2023-05-10T03:04:30.936Z,99.90
2023-05-10T03:07:00.269Z,99.90
2023-05-10T03:09:29.374Z,99.90
2023-05-10T03:12:06.140Z,99.90
2023-05-10T03:14:46.897Z,99.90
2023-05-10T03:17:26.342Z,99.90
2023-05-10T03:19:58.294Z,99.90
2023-05-10T03:22:33.356Z,99.90
2023-05-10T03:25:06.662Z,99.90
2023-05-10T03:27:42.306Z,99.90
2023-05-10T03:30:16.571Z,99.90
2023-05-10T03:32:45.161Z,99.90
2023-05-10T03:35:15.361Z,99.90
2023-05-10T03:37:45.348Z,99.90
2023-05-10T03:40:14.402Z,99.90
2023-05-10T03:42:44.528Z,99.90
2023-05-10T03:45:17.004Z,99.90
2023-05-10T03:47:45.367Z,99.90
2023-05-10T03:50:15.322Z,99.90
2023-05-10T03:52:45.319Z,99.90
2023-05-10T03:55:13.594Z,99.90
2023-05-10T03:57:45.342Z,99.90
2023-05-10T04:00:14.752Z,99.90
2023-05-10T04:02:54.521Z,99.90
2023-05-10T04:05:24.230Z,99.90
2023-05-10T04:07:55.562Z,99.90
2023-05-10T04:10:23.652Z,99.90
2023-05-10T04:12:52.259Z,99.90
2023-05-10T04:15:21.355Z,99.80
2023-05-10T04:17:49.820Z,99.70
2023-05-10T04:20:18.704Z,99.90
2023-05-10T04:22:48.384Z,99.90
2023-05-10T04:25:18.160Z,99.70
2023-05-10T04:27:49.496Z,99.70
2023-05-10T04:30:18.040Z,99.70
2023-05-10T04:32:46.401Z,99.80
2023-05-10T04:35:16.383Z,99.60
2023-05-10T04:37:48.244Z,99.30
2023-05-10T04:40:19.285Z,99.30
2023-05-10T04:42:47.551Z,99.10
2023-05-10T04:45:16.612Z,99.00
2023-05-10T04:47:44.828Z,99.10
2023-05-10T04:50:15.145Z,99.10
2023-05-10T04:52:46.530Z,98.70
2023-05-10T04:55:16.030Z,98.60
2023-05-10T04:57:44.214Z,98.60
2023-05-10T05:00:13.629Z,98.60
2023-05-10T05:02:45.369Z,98.50
2023-05-10T05:05:15.137Z,98.60
2023-05-10T05:07:43.297Z,98.30
2023-05-10T05:10:11.882Z,98.40
2023-05-10T05:12:41.458Z,98.30
2023-05-10T05:15:11.768Z,98.20
2023-05-10T05:17:40.078Z,98.30
2023-05-10T05:20:12.196Z,97.90
2023-05-10T05:22:44.302Z,98.10
2023-05-10T05:25:12.816Z,97.90
2023-05-10T05:27:42.491Z,97.80
2023-05-10T05:30:11.654Z,98.00
2023-05-10T05:32:40.378Z,97.70
2023-05-10T05:35:12.430Z,97.90
2023-05-10T05:37:42.399Z,97.60
2023-05-10T05:40:14.312Z,97.60
2023-05-10T05:42:44.030Z,97.80
2023-05-10T05:45:14.286Z,97.80
2023-05-10T05:47:42.762Z,97.60
2023-05-10T05:50:12.070Z,98.00
2023-05-10T05:52:40.638Z,97.50
2023-05-10T05:55:09.319Z,97.20
2023-05-10T05:57:41.391Z,97.10
2023-05-10T06:00:11.972Z,97.10
2023-05-10T06:02:43.286Z,97.30
2023-05-10T06:05:11.638Z,97.20
2023-05-10T06:07:40.836Z,97.30
2023-05-10T06:10:09.753Z,97.50
2023-05-10T06:12:38.238Z,97.30
2023-05-10T06:15:06.952Z,97.40
2023-05-10T06:17:36.490Z,97.10
2023-05-10T06:20:04.954Z,97.10
2023-05-10T06:22:33.064Z,96.70
2023-05-10T06:25:01.162Z,96.90
2023-05-10T06:27:29.517Z,96.80
2023-05-10T06:30:11.729Z,96.60
2023-05-10T06:32:42.260Z,96.50
2023-05-10T06:35:11.191Z,96.20
2023-05-10T06:37:39.300Z,96.20
2023-05-10T06:40:08.846Z,96.10
2023-05-10T06:42:40.106Z,96.30
2023-05-10T06:45:10.928Z,96.10
2023-05-10T06:47:39.510Z,96.20
2023-05-10T06:50:10.054Z,96.40
2023-05-10T06:52:40.933Z,96.00
2023-05-10T06:55:10.610Z,96.10
2023-05-10T06:57:38.671Z,95.30
2023-05-10T07:00:08.242Z,94.70
2023-05-10T07:02:37.430Z,95.00
2023-05-10T07:05:09.501Z,94.50
2023-05-10T07:07:38.962Z,94.30
2023-05-10T07:10:09.515Z,94.20
2023-05-10T07:12:37.663Z,93.30
2023-05-10T07:15:06.674Z,93.90
2023-05-10T07:17:35.525Z,94.10
2023-05-10T07:20:05.471Z,92.50
2023-05-10T07:22:33.709Z,92.40
2023-05-10T07:25:03.400Z,92.80
2023-05-10T07:27:31.501Z,92.10
2023-05-10T07:29:59.815Z,91.80
2023-05-10T07:32:28.018Z,91.90
2023-05-10T07:34:56.549Z,92.00
2023-05-10T07:37:24.702Z,91.70
2023-05-10T07:39:52.774Z,92.00
2023-05-10T07:42:22.669Z,91.90
2023-05-10T07:44:50.705Z,90.90
2023-05-10T07:47:22.072Z,91.00
2023-05-10T07:49:54.139Z,91.70
2023-05-10T07:52:22.803Z,91.80
2023-05-10T07:54:51.299Z,92.20
2023-05-10T07:57:20.450Z,91.50
2023-05-10T07:59:50.997Z,91.10
2023-05-10T08:02:21.350Z,90.20
2023-05-10T08:04:49.438Z,90.60
2023-05-10T08:07:17.515Z,90.30
2023-05-10T08:09:45.742Z,89.70
2023-05-10T08:12:13.879Z,88.50
2023-05-10T08:14:43.182Z,87.30
2023-05-10T08:17:12.703Z,88.10
2023-05-10T08:19:40.904Z,88.40
2023-05-10T08:22:13.144Z,87.60
2023-05-10T08:24:42.977Z,87.50
2023-05-10T08:27:11.280Z,87.10
2023-05-10T08:29:49.462Z,86.30
2023-05-10T08:32:20.581Z,87.60
2023-05-10T08:34:52.094Z,85.10
2023-05-10T08:37:20.199Z,84.90
2023-05-10T08:39:49.018Z,85.90
2023-05-10T08:42:22.700Z,85.70
2023-05-10T08:44:53.494Z,84.80
2023-05-10T08:47:23.388Z,84.90
2023-05-10T08:49:56.454Z,86.00
2023-05-10T08:52:30.269Z,86.50
2023-05-10T08:54:58.881Z,88.10
2023-05-10T08:57:27.489Z,86.90
2023-05-10T08:59:55.903Z,87.40
2023-05-10T09:02:26.263Z,85.20
2023-05-10T09:04:54.599Z,86.60
2023-05-10T09:07:23.079Z,86.40
2023-05-10T09:09:51.728Z,87.20
2023-05-10T09:12:19.831Z,87.60
2023-05-10T09:14:52.600Z,86.40
2023-05-10T09:17:21.021Z,87.00
2023-05-10T09:19:50.729Z,87.90
2023-05-10T09:22:19.507Z,87.40
2023-05-10T09:24:49.392Z,84.80
2023-05-10T09:27:17.646Z,85.00
2023-05-10T09:29:46.131Z,84.90
2023-05-10T09:32:14.263Z,85.60
2023-05-10T09:34:43.516Z,84.20
2023-05-10T09:37:15.558Z,84.00
2023-05-10T09:39:46.911Z,85.10
2023-05-10T09:42:20.273Z,84.40
2023-05-10T09:44:48.982Z,85.60
2023-05-10T09:47:19.792Z,86.10
2023-05-10T09:49:52.166Z,84.60
2023-05-10T09:52:21.599Z,85.20
2023-05-10T09:54:55.968Z,85.10
2023-05-10T09:57:25.527Z,84.40
2023-05-10T09:59:55.305Z,84.50
2023-05-10T10:02:30.286Z,85.30
2023-05-10T10:04:59.543Z,85.30
2023-05-10T10:07:29.709Z,86.30
2023-05-10T10:09:58.035Z,83.60
2023-05-10T10:12:27.029Z,84.10
2023-05-10T10:14:57.034Z,83.90
2023-05-10T10:17:29.198Z,84.60
2023-05-10T10:19:59.739Z,84.60
2023-05-10T10:22:29.231Z,83.80
2023-05-10T10:25:00.524Z,84.10
2023-05-10T10:27:37.657Z,83.70
2023-05-10T10:30:15.580Z,84.90
2023-05-10T10:33:16.525Z,85.00
2023-05-10T10:35:49.494Z,85.00
2023-05-10T10:38:19.125Z,83.50
2023-05-10T10:40:47.263Z,84.10
2023-05-10T10:43:26.542Z,84.20
2023-05-10T10:46:16.631Z,85.10
2023-05-10T10:48:50.037Z,85.30
2023-05-10T10:51:19.549Z,85.20
2023-05-10T10:53:52.738Z,85.00
2023-05-10T10:56:25.550Z,84.70
2023-05-10T10:58:54.666Z,82.20
2023-05-10T11:01:23.598Z,81.20
2023-05-10T11:04:21.095Z,81.90
2023-05-10T11:06:50.542Z,81.30
2023-05-10T11:09:23.128Z,81.90
2023-05-10T11:11:55.908Z,82.50
2023-05-10T11:14:25.538Z,82.70
2023-05-10T11:16:54.645Z,84.30
2023-05-10T11:19:22.790Z,81.90
2023-05-10T11:21:52.594Z,81.30
2023-05-10T11:24:25.582Z,82.00
2023-05-10T11:26:53.743Z,80.90
2023-05-10T11:29:22.126Z,81.60
2023-05-10T11:31:51.565Z,80.40
2023-05-10T11:34:27.592Z,82.40
2023-05-10T11:36:57.248Z,81.00
2023-05-10T11:39:30.081Z,81.20
2023-05-10T11:41:59.406Z,81.40
2023-05-10T11:44:35.358Z,79.80
2023-05-10T11:47:04.609Z,80.40
2023-05-10T11:49:35.322Z,80.50
2023-05-10T11:52:08.152Z,80.40
2023-05-10T11:54:37.634Z,81.30
2023-05-10T11:57:06.217Z,81.90
2023-05-10T11:59:37.649Z,82.00
2023-05-10T12:02:05.973Z,79.80
2023-05-10T12:04:35.739Z,78.00
2023-05-10T12:07:04.053Z,80.50
2023-05-10T12:09:43.427Z,78.10
2023-05-10T12:12:18.509Z,79.10
2023-05-10T12:14:50.926Z,80.10
2023-05-10T12:17:19.108Z,79.90
2023-05-10T12:19:48.190Z,80.40
2023-05-10T12:22:16.525Z,79.40
2023-05-10T12:24:47.409Z,77.50
2023-05-10T12:27:16.920Z,77.50
2023-05-10T12:29:46.066Z,75.60
2023-05-10T12:32:15.291Z,77.80
2023-05-10T12:34:43.531Z,78.90
2023-05-10T12:37:15.185Z,78.70
2023-05-10T12:39:44.344Z,77.90
2023-05-10T12:42:13.860Z,77.30
2023-05-10T12:44:43.336Z,77.10
2023-05-10T12:47:12.634Z,76.20
2023-05-10T12:49:41.643Z,77.20
2023-05-10T12:52:09.712Z,77.10
2023-05-10T12:54:38.499Z,72.60
2023-05-10T12:57:06.644Z,75.20
2023-05-10T12:59:38.621Z,75.60
2023-05-10T13:02:08.974Z,74.30
2023-05-10T13:04:38.714Z,73.00
2023-05-10T13:07:07.126Z,73.30
2023-05-10T13:09:40.646Z,72.40
2023-05-10T13:12:12.421Z,72.60
2023-05-10T13:14:42.598Z,72.70
2023-05-10T13:17:15.839Z,71.80
2023-05-10T13:19:46.022Z,71.50
2023-05-10T13:22:15.029Z,70.60
2023-05-10T13:24:46.649Z,69.00
2023-05-10T13:27:17.234Z,67.00
2023-05-10T13:29:49.215Z,64.80
2023-05-10T13:32:19.050Z,63.40
2023-05-10T13:34:51.101Z,61.30
2023-05-10T13:37:20.530Z,59.90
2023-05-10T13:39:48.947Z,58.60
2023-05-10T13:42:17.887Z,58.70
2023-05-10T13:44:46.317Z,55.70
2023-05-10T13:47:14.742Z,54.50
2023-05-10T13:49:44.601Z,54.90
2023-05-10T13:52:13.173Z,52.70
2023-05-10T13:54:44.242Z,52.10
2023-05-10T13:57:14.908Z,53.10
2023-05-10T13:59:46.373Z,52.30
2023-05-10T14:02:15.593Z,50.90
2023-05-10T14:04:45.255Z,52.20
2023-05-10T14:07:13.506Z,53.10
2023-05-10T14:09:41.988Z,51.90
2023-05-10T14:12:10.399Z,50.90
2023-05-10T14:14:38.661Z,50.20
2023-05-10T14:17:06.986Z,49.90
2023-05-10T14:19:35.332Z,50.40
2023-05-10T14:22:05.214Z,49.80
2023-05-10T14:24:33.686Z,49.40
2023-05-10T14:27:01.942Z,49.00
2023-05-10T14:29:30.497Z,50.60
2023-05-10T14:31:59.144Z,50.50
2023-05-10T14:34:27.965Z,49.90
2023-05-10T14:36:56.155Z,50.40
2023-05-10T14:39:28.276Z,50.00
2023-05-10T14:41:56.685Z,48.00
2023-05-10T14:44:25.103Z,49.00
2023-05-10T14:46:53.379Z,48.70
2023-05-10T14:49:23.822Z,48.90
2023-05-10T14:51:52.118Z,49.70
2023-05-10T14:54:25.402Z,49.70
2023-05-10T14:56:53.621Z,49.70
2023-05-10T14:59:22.968Z,48.90
2023-05-10T15:01:52.163Z,49.10
2023-05-10T15:04:20.971Z,50.20
2023-05-10T15:06:50.709Z,50.60
2023-05-10T15:09:19.665Z,51.20
2023-05-10T15:11:50.123Z,51.60
2023-05-10T15:14:21.493Z,51.40
2023-05-10T15:16:49.858Z,50.80
2023-05-10T15:19:18.674Z,50.30
2023-05-10T15:21:49.229Z,49.40
2023-05-10T15:24:17.638Z,49.60
2023-05-10T15:26:47.313Z,50.00
2023-05-10T15:29:20.913Z,49.80
2023-05-10T15:31:50.900Z,50.10
2023-05-10T15:34:22.736Z,49.80
2023-05-10T15:36:55.718Z,50.20
2023-05-10T15:39:25.573Z,51.60
2023-05-10T15:41:54.831Z,51.60
2023-05-10T15:44:29.176Z,52.30
2023-05-10T15:46:57.827Z,52.90
2023-05-10T15:49:26.862Z,53.10
2023-05-10T15:51:55.954Z,53.00
2023-05-10T15:54:24.525Z,53.90
2023-05-10T15:56:55.143Z,55.00
2023-05-10T15:59:23.981Z,55.30
2023-05-10T16:01:53.903Z,54.40
2023-05-10T16:04:22.297Z,53.80
2023-05-10T16:06:50.740Z,56.10
2023-05-10T16:09:20.551Z,56.40
2023-05-10T16:11:52.367Z,56.00
2023-05-10T16:14:22.174Z,56.20
2023-05-10T16:16:50.680Z,56.40
2023-05-10T16:19:20.648Z,56.60
2023-05-10T16:21:49.197Z,57.10
2023-05-10T16:24:20.462Z,57.50
2023-05-10T16:26:49.078Z,57.20
2023-05-10T16:29:18.125Z,57.40
2023-05-10T16:31:47.839Z,57.20
2023-05-10T16:34:16.418Z,57.40
2023-05-10T16:36:49.071Z,58.20
2023-05-10T16:39:17.529Z,58.70
2023-05-10T16:41:45.978Z,59.10
2023-05-10T16:44:14.610Z,59.30
2023-05-10T16:46:45.709Z,59.60
2023-05-10T16:49:16.569Z,59.20
2023-05-10T16:51:46.302Z,59.10
2023-05-10T16:54:14.934Z,59.40
2023-05-10T16:56:43.252Z,59.70
2023-05-10T16:59:11.552Z,59.70
2023-05-10T17:01:40.178Z,60.00
2023-05-10T17:04:12.822Z,60.60
2023-05-10T17:06:42.718Z,61.00
2023-05-10T17:09:12.353Z,62.10
2023-05-10T17:11:42.297Z,62.10
2023-05-10T17:14:12.484Z,61.70
2023-05-10T17:16:40.920Z,61.70
2023-05-10T17:19:11.253Z,62.00
2023-05-10T17:21:40.467Z,62.80
2023-05-10T17:24:11.651Z,62.80
2023-05-10T17:26:39.918Z,62.60
2023-05-10T17:29:08.316Z,62.20
2023-05-10T17:31:36.687Z,62.70
2023-05-10T17:34:06.695Z,62.50
2023-05-10T17:36:36.000Z,62.80
2023-05-10T17:39:04.395Z,63.30
2023-05-10T17:41:38.630Z,63.30
2023-05-10T17:44:10.323Z,64.10
2023-05-10T17:46:39.474Z,64.30
2023-05-10T17:49:07.626Z,64.90
2023-05-10T17:51:39.310Z,65.00
2023-05-10T17:54:07.577Z,65.00
2023-05-10T17:56:37.312Z,65.20
2023-05-10T17:59:05.880Z,65.30
2023-05-10T18:01:44.320Z,65.20
2023-05-10T18:04:13.672Z,66.20
2023-05-10T18:06:42.319Z,66.40
2023-05-10T18:09:12.025Z,66.60
2023-05-10T18:11:42.067Z,66.50
2023-05-10T18:14:11.414Z,67.00
2023-05-10T18:16:39.808Z,67.30
2023-05-10T18:19:08.285Z,68.50
2023-05-10T18:21:40.340Z,67.70
2023-05-10T18:24:09.081Z,67.60
2023-05-10T18:26:38.814Z,67.50
2023-05-10T18:29:09.199Z,68.30
2023-05-10T18:31:37.788Z,68.70
2023-05-10T18:34:06.509Z,68.70
2023-05-10T18:36:35.586Z,69.00
2023-05-10T18:39:03.818Z,69.80
2023-05-10T18:41:32.203Z,69.60
2023-05-10T18:44:03.489Z,69.70
2023-05-10T18:46:35.859Z,69.50
2023-05-10T18:49:04.497Z,70.10
2023-05-10T18:51:33.668Z,70.70
2023-05-10T18:54:03.130Z,70.80
2023-05-10T18:56:34.312Z,71.00
2023-05-10T18:59:05.629Z,70.80
2023-05-10T19:01:42.261Z,71.40
2023-05-10T19:04:10.738Z,71.20
2023-05-10T19:06:43.708Z,72.50
2023-05-10T19:09:14.662Z,72.20
2023-05-10T19:11:47.127Z,72.90
2023-05-10T19:14:17.849Z,73.10
2023-05-10T19:16:49.854Z,72.90
2023-05-10T19:19:20.488Z,73.30
2023-05-10T19:21:49.019Z,74.00
2023-05-10T19:24:20.264Z,73.50
2023-05-10T19:26:52.879Z,74.00
2023-05-10T19:29:28.183Z,74.10
2023-05-10T19:32:01.027Z,73.80
2023-05-10T19:34:31.387Z,74.00
2023-05-10T19:36:59.923Z,74.30
2023-05-10T19:39:28.747Z,74.90
2023-05-10T19:41:56.899Z,74.90
2023-05-10T19:44:26.506Z,75.10
2023-05-10T19:46:54.729Z,75.40
2023-05-10T19:49:24.399Z,75.20
2023-05-10T19:51:52.922Z,76.10
2023-05-10T19:54:22.117Z,76.30
2023-05-10T19:56:50.464Z,76.60
2023-05-10T19:59:18.912Z,76.30
2023-05-10T20:01:47.234Z,76.10
2023-05-10T20:04:15.566Z,76.50
2023-05-10T20:06:45.104Z,76.80
2023-05-10T20:09:13.268Z,76.90
2023-05-10T20:11:41.918Z,77.10
2023-05-10T20:14:10.321Z,77.90
2023-05-10T20:16:38.935Z,78.10
2023-05-10T20:19:07.097Z,78.30
2023-05-10T20:21:35.923Z,78.40
2023-05-10T20:24:05.860Z,78.60
2023-05-10T20:26:34.016Z,79.10
2023-05-10T20:29:02.196Z,79.60
2023-05-10T20:31:30.238Z,79.60
2023-05-10T20:33:58.922Z,80.10
2023-05-10T20:36:27.931Z,80.50
2023-05-10T20:38:56.031Z,80.60
2023-05-10T20:41:25.913Z,80.70
2023-05-10T20:43:58.054Z,81.40
2023-05-10T20:46:27.104Z,81.50
2023-05-10T20:48:55.636Z,82.00
2023-05-10T20:51:23.990Z,82.10
2023-05-10T20:53:52.121Z,82.40
2023-05-10T20:56:25.067Z,82.30
2023-05-10T20:58:55.103Z,82.40
2023-05-10T21:01:27.338Z,81.80
2023-05-10T21:03:55.448Z,80.90
2023-05-10T21:06:23.628Z,80.90
2023-05-10T21:08:52.393Z,81.00
2023-05-10T21:11:20.828Z,81.10
2023-05-10T21:13:48.904Z,80.80
2023-05-10T21:16:19.332Z,80.80
2023-05-10T21:18:47.534Z,80.60
2023-05-10T21:21:16.970Z,80.80
2023-05-10T21:23:47.821Z,81.00
2023-05-10T21:26:17.983Z,81.00
2023-05-10T21:28:46.819Z,81.30
2023-05-10T21:31:18.357Z,81.20
2023-05-10T21:33:47.824Z,81.40
2023-05-10T21:36:16.920Z,81.10
2023-05-10T21:38:46.549Z,81.50
2023-05-10T21:41:14.644Z,81.10
2023-05-10T21:43:42.772Z,81.30
2023-05-10T21:46:16.341Z,80.80
2023-05-10T21:48:44.501Z,81.10
2023-05-10T21:51:13.921Z,81.10
2023-05-10T21:53:43.097Z,81.50
2023-05-10T21:56:11.617Z,81.70
2023-05-10T21:58:40.736Z,81.40
2023-05-10T22:01:11.422Z,81.20
2023-05-10T22:03:41.043Z,81.30
2023-05-10T22:06:09.508Z,80.70
2023-05-10T22:08:43.079Z,80.90
2023-05-10T22:11:11.200Z,81.10
2023-05-10T22:13:39.439Z,81.20
2023-05-10T22:16:09.030Z,81.90
2023-05-10T22:18:37.437Z,81.50
2023-05-10T22:21:06.135Z,81.20
2023-05-10T22:23:36.990Z,81.90
2023-05-10T22:26:06.580Z,82.00
2023-05-10T22:28:35.021Z,81.70
2023-05-10T22:31:03.587Z,81.30
2023-05-10T22:33:31.672Z,81.40
2023-05-10T22:36:01.019Z,81.80
2023-05-10T22:38:30.020Z,81.90
2023-05-10T22:41:00.134Z,82.10
2023-05-10T22:43:30.015Z,82.50
2023-05-10T22:45:59.058Z,82.80
2023-05-10T22:48:27.216Z,82.60
2023-05-10T22:50:55.900Z,83.00
2023-05-10T22:53:26.044Z,83.40
2023-05-10T22:55:54.290Z,83.00
2023-05-10T22:58:23.994Z,82.90
2023-05-10T23:00:53.426Z,82.90
2023-05-10T23:03:22.148Z,82.90
2023-05-10T23:05:55.089Z,83.00
2023-05-10T23:08:23.453Z,82.90
2023-05-10T23:10:53.048Z,83.20
2023-05-10T23:13:21.794Z,83.00
2023-05-10T23:15:50.042Z,83.50
2023-05-10T23:18:22.447Z,83.60
2023-05-10T23:20:50.815Z,83.40
2023-05-10T23:23:20.065Z,83.70
2023-05-10T23:25:48.332Z,84.10
2023-05-10T23:28:17.082Z,84.00
2023-05-10T23:30:46.762Z,84.10
2023-05-10T23:33:19.495Z,84.00
2023-05-10T23:35:47.704Z,83.80
2023-05-10T23:38:15.887Z,84.40
2023-05-10T23:40:44.143Z,84.30
2023-05-10T23:43:15.033Z,84.40
2023-05-10T23:45:53.789Z,84.90
2023-05-10T23:48:27.411Z,84.90
2023-05-10T23:50:55.609Z,85.20
2023-05-10T23:53:23.676Z,84.60
2023-05-10T23:55:52.032Z,85.10
2023-05-10T23:58:20.408Z,85.30
